< < Back
Terminal Aerodrome Forecast


Current Version              Previous Versions:   1  2  3  4  5  6  7  8  9  

Terminal Aerodrome Forecast

448
FTUS42 KCHS 272300
TAFCHS
TAF
KCHS 272340Z 2800/2824 24008KT P6SM BKN200
     FM281400 26013G19KT P6SM FEW040 SCT200
     FM281800 25016G23KT P6SM SCT050 BKN200
     FM282100 24015G22KT P6SM VCTS BKN050CB=

Latest METAR

472
SAUS80 KWBC 282200 RRB
MTRCHS
METAR KCHS 282156Z 23009KT 10SM FEW030 SCT045 BKN200 32/26 A2979 RMK AO2
RAB20E53 SLP088 P0000 T03170256


USA.gov is the U.S. government's official web portal to all federal, state and local government web resources and services.